Time;durP1;ratioP1;P1;durP2;ratioP2;P2;SDS_P1;SDS_P2;PMS_P1;PMS_P2;Temp;Humidity;BMP_temperature;BMP_pressure;BME280_temperature;BME280_humidity;BME280_pressure;Samples;Min_cycle;Max_cycle;Signal;HPM_P1;HPM_P2
2022/06/08 00:02:33;;;;;;;52.92;32.60;;;;;;;12.53;100.00;100874.28;4993336;28;20092;-88
2022/06/08 00:05:23;;;;;;;57.47;34.42;;;;;;;13.68;100.00;101071.78;4975669;28;20034;-89
2022/06/08 00:07:50;;;;;;;55.80;34.17;;;;;;;12.41;100.00;100882.91;4992926;28;20046;-88
2022/06/08 00:10:18;;;;;;;62.15;35.42;;;;;;;12.60;100.00;100915.19;4992851;28;20057;-88
2022/06/08 00:13:07;;;;;;;58.85;36.28;;;;;;;13.62;100.00;101072.22;4975577;28;20030;-88
2022/06/08 00:15:33;;;;;;;63.95;37.72;;;;;;;12.41;100.00;100862.19;4954913;28;20043;-87
2022/06/08 00:18:06;;;;;;;57.65;34.90;;;;;;;12.42;100.00;100856.09;4955668;29;20499;-88
2022/06/08 00:20:33;;;;;;;61.53;36.47;;;;;;;12.56;100.00;100872.28;4955763;29;20043;-88
2022/06/08 00:27:30;;;;;;;65.25;38.10;;;;;;;13.63;100.00;101053.94;4940647;29;20050;-87
2022/06/08 00:29:59;;;;;;;64.00;36.97;;;;;;;13.17;100.00;100983.75;4939496;29;20050;-87
2022/06/08 00:32:27;;;;;;;63.70;37.35;;;;;;;12.57;100.00;100901.63;4955336;29;20047;-88
2022/06/08 00:34:56;;;;;;;60.05;36.65;;;;;;;12.12;100.00;100822.81;4955456;29;20050;-87
2022/06/08 00:37:25;;;;;;;58.05;35.78;;;;;;;12.23;100.00;100852.19;4955533;29;20046;-88
2022/06/08 00:39:51;;;;;;;60.90;37.08;;;;;;;12.40;100.00;100878.66;4955170;29;20130;-88
2022/06/08 00:42:20;;;;;;;65.10;38.42;;;;;;;13.42;100.00;101042.53;4955286;29;20106;-86
2022/06/08 00:44:58;;;;;;;61.53;37.25;;;;;;;12.72;100.00;100928.22;4955353;29;20430;-87
2022/06/08 00:47:48;;;;;;;58.60;35.83;;;;;;;13.36;100.00;101030.81;4955097;28;20388;-88
2022/06/08 00:50:50;;;;;;;53.25;33.85;;;;;;;13.31;100.00;101029.50;4955387;29;20043;-88
2022/06/08 00:53:37;;;;;;;58.95;36.20;;;;;;;13.21;100.00;101029.31;4987273;28;20117;-88
2022/06/08 00:56:26;;;;;;;54.83;34.72;;;;;;;13.13;100.00;101040.19;4995471;28;20134;-89
2022/06/08 00:58:53;;;;;;;62.47;36.75;;;;;;;11.94;100.00;100832.66;4995892;28;20419;-87
2022/06/08 01:01:33;;;;;;;55.45;35.95;;;;;;;12.44;100.00;100922.38;4935697;29;20050;-86
2022/06/08 01:04:19;;;;;;;56.55;34.10;;;;;;;12.65;100.00;100940.78;4935722;29;20036;-87
2022/06/08 01:07:08;;;;;;;60.83;34.67;;;;;;;12.56;100.00;100925.88;4935885;29;20047;-87
2022/06/08 01:09:38;;;;;;;58.95;36.05;;;;;;;11.94;100.00;100833.47;4935215;29;20122;-87
2022/06/08 01:12:41;;;;;;;59.40;36.10;;;;;;;12.47;100.00;100924.75;4918934;29;20054;-87
2022/06/08 01:15:09;;;;;;;57.22;34.72;;;;;;;12.15;100.00;100875.19;4929769;29;20120;-87
2022/06/08 01:17:35;;;;;;;60.80;37.30;;;;;;;12.93;100.00;101012.25;4935637;29;20038;-87
2022/06/08 01:20:00;;;;;;;57.10;34.75;;;;;;;11.68;100.00;100816.28;4935709;29;20036;-87
2022/06/08 01:22:26;;;;;;;54.55;33.63;;;;;;;12.68;100.00;100978.59;4935333;29;20032;-87
2022/06/08 01:29:38;;;;;;;63.83;36.80;;;;;;;12.58;100.00;100958.50;4841659;29;20106;-85
2022/06/08 01:31:50;;;;;;;63.88;36.50;;;;;;;12.77;100.00;100986.53;4802492;29;20484;-85
2022/06/08 01:34:38;;;;;;;57.33;36.05;;;;;;;12.27;100.00;100910.56;4805395;29;20043;-86
2022/06/08 01:37:11;;;;;;;55.47;34.67;;;;;;;11.93;100.00;100854.28;4804991;29;20079;-85
2022/06/08 01:40:14;;;;;;;55.20;34.83;;;;;;;11.75;100.00;100833.88;4851578;29;20042;-85
2022/06/08 01:43:05;;;;;;;60.35;35.20;;;;;;;12.12;100.00;100895.28;4859713;29;20025;-85
2022/06/08 01:46:05;;;;;;;59.30;36.25;;;;;;;12.51;100.00;100959.88;4859941;29;20060;-85
2022/06/08 01:49:16;;;;;;;62.78;37.90;;;;;;;12.51;100.00;100964.22;4859642;29;20054;-85
2022/06/08 01:52:19;;;;;;;61.55;35.55;;;;;;;12.47;100.00;100957.59;4859712;29;20067;-85
2022/06/08 01:55:18;;;;;;;62.78;36.53;;;;;;;12.43;100.00;100956.16;4859461;29;20037;-85
2022/06/08 01:57:56;;;;;;;60.70;36.65;;;;;;;12.38;100.00;100953.03;4859362;29;20216;-85
2022/06/08 02:00:37;;;;;;;61.03;36.53;;;;;;;12.33;100.00;100954.19;4859386;29;20057;-85
2022/06/08 02:03:36;;;;;;;63.88;37.67;;;;;;;11.93;100.00;100885.34;4859225;29;20434;-85
2022/06/08 02:09:13;;;;;;;59.42;34.70;;;;;;;11.42;100.00;100798.19;4994653;28;20070;-85
2022/06/08 02:12:07;;;;;;;64.72;37.97;;;;;;;11.75;100.00;100859.75;4994291;28;20026;-84
2022/06/08 02:15:06;;;;;;;60.47;36.42;;;;;;;12.21;100.00;100926.53;4994263;28;20486;-85
2022/06/08 02:18:02;;;;;;;62.10;36.65;;;;;;;12.23;100.00;100924.69;4994225;28;20395;-86
2022/06/08 02:20:52;;;;;;;65.43;37.67;;;;;;;12.24;100.00;100915.97;4994272;28;20509;-86
2022/06/08 02:23:47;;;;;;;;;;;;;;;;;;;;;
2022/06/08 02:26:28;;;;;;;62.55;37.50;;;;;;;11.48;100.00;100790.00;4993665;28;20034;-86
2022/06/08 02:29:22;;;;;;;63.55;37.53;;;;;;;12.22;100.00;100901.47;4993966;28;20025;-86
2022/06/08 02:35:08;;;;;;;61.25;36.85;;;;;;;11.25;100.00;100751.13;4933889;29;20043;-87
2022/06/08 02:37:34;;;;;;;56.42;33.35;;;;;;;11.29;100.00;100761.13;4933097;29;20047;-86
2022/06/08 02:40:43;;;;;;;62.85;35.20;;;;;;;11.49;100.00;100798.56;4933833;29;20155;-87
2022/06/08 02:43:46;;;;;;;59.95;35.85;;;;;;;12.05;100.00;100884.50;4933739;29;20050;-87
2022/06/08 02:46:30;;;;;;;65.10;35.88;;;;;;;11.36;100.00;100772.72;4933743;29;20373;-87
2022/06/08 02:48:55;;;;;;;60.95;35.60;;;;;;;10.96;100.00;100722.03;4933553;29;20485;-86
2022/06/08 02:51:50;;;;;;;59.63;35.13;;;;;;;10.91;100.00;100714.56;4933601;29;20067;-87
2022/06/08 02:54:50;;;;;;;54.78;33.08;;;;;;;11.90;100.00;100875.22;4933663;29;20042;-88
2022/06/08 02:57:43;;;;;;;56.28;34.92;;;;;;;11.87;100.00;100886.56;4933484;29;20072;-87
2022/06/08 03:07:43;;;;;;;54.58;31.98;;;;;;;11.86;100.00;100876.34;4933543;29;20043;-86
2022/06/08 03:10:23;;;;;;;50.40;30.52;;;;;;;10.53;100.00;100653.38;4933280;29;20038;-86
2022/06/08 03:13:41;;;;;;;51.53;30.52;;;;;;;10.89;100.00;100711.28;4986095;28;20034;-86
2022/06/08 03:16:41;;;;;;;59.15;33.88;;;;;;;11.82;100.00;100851.59;4952060;29;20047;-87
2022/06/08 03:19:08;;;;;;;49.15;29.63;;;;;;;10.93;100.00;100719.66;4952283;29;20038;-86
2022/06/08 03:21:36;;;;;;;56.78;32.88;;;;;;;11.77;100.00;100862.22;4952553;29;20061;-87
2022/06/08 03:24:54;;;;;;;53.55;31.05;;;;;;;11.81;100.00;100860.31;4952423;29;20419;-87
2022/06/08 03:30:19;;;;;;;48.75;30.30;;;;;;;11.27;100.00;100783.69;4952098;29;20075;-87
2022/06/08 03:32:45;;;;;;;53.40;30.83;;;;;;;10.22;100.00;100631.28;4952124;29;20051;-86
2022/06/08 03:35:35;;;;;;;52.08;31.88;;;;;;;11.72;100.00;100862.53;4952310;29;20495;-85
2022/06/08 04:05:20;;;;;;;43.25;28.13;;;;;;;11.82;100.00;100666.16;4899365;29;20036;-86
2022/06/08 04:08:01;;;;;;;43.38;27.25;;;;;;;12.87;100.00;100820.88;4898922;29;20040;-86
2022/06/08 04:10:38;;;;;;;42.58;24.67;;;;;;;12.93;100.00;100816.06;4898776;29;20035;-85
2022/06/08 04:13:04;;;;;;;41.17;25.52;;;;;;;12.59;100.00;100746.94;4898341;29;20036;-86
2022/06/08 04:15:44;;;;;;;43.05;25.10;;;;;;;13.38;100.00;100860.34;4898742;29;20040;-81
2022/06/08 04:18:22;;;;;;;37.10;24.08;;;;;;;13.45;100.00;100853.75;4898763;29;20192;-83
2022/06/08 04:20:52;;;;;;;35.97;23.63;;;;;;;13.47;100.00;100856.25;4928699;29;20039;-82
2022/06/08 04:23:20;;;;;;;36.00;21.75;;;;;;;13.53;100.00;100839.38;4955641;28;20117;-81
2022/06/08 04:25:46;;;;;;;34.92;21.60;;;;;;;13.60;100.00;100840.56;4955252;29;20046;-82
2022/06/08 04:28:15;;;;;;;32.58;22.25;;;;;;;13.62;100.00;100839.50;4939450;29;20027;-81
2022/06/08 04:30:41;;;;;;;35.05;22.95;;;;;;;13.69;100.00;100834.69;4955564;29;20031;-82
2022/06/08 04:33:06;;;;;;;30.77;21.52;;;;;;;13.62;100.00;100804.97;4989152;28;20083;-83
2022/06/08 04:35:32;;;;;;;32.40;21.45;;;;;;;13.78;100.00;100823.63;4996377;28;20074;-82
2022/06/08 04:37:59;;;;;;;29.98;20.45;;;;;;;14.10;100.00;100838.47;4996280;28;20447;-82
2022/06/08 04:40:25;;;;;;;30.17;20.83;;;;;;;14.11;100.00;100814.16;4978856;28;20072;-82
2022/06/08 04:42:51;;;;;;;27.30;20.35;;;;;;;14.36;100.00;100845.06;4996109;28;20034;-80
2022/06/08 04:45:17;;;;;;;27.95;19.45;;;;;;;14.42;100.00;100838.56;4995916;28;20057;-82
2022/06/08 04:47:43;;;;;;;28.50;18.83;;;;;;;14.56;100.00;100838.34;4996180;28;20026;-85
2022/06/08 04:50:09;;;;;;;27.95;19.40;;;;;;;14.60;100.00;100822.38;4996087;28;20154;-82
2022/06/08 04:52:36;;;;;;;26.65;18.35;;;;;;;14.80;100.00;100820.75;4978737;28;20025;-82
2022/06/08 04:55:03;;;;;;;26.48;18.15;;;;;;;15.01;100.00;100819.97;4994986;28;20041;-81
2022/06/08 04:57:30;;;;;;;25.52;16.20;;;;;;;15.21;100.00;100814.78;4978727;28;20033;-83
2022/06/08 04:59:56;;;;;;;22.92;15.38;;;;;;;15.19;98.72;100774.25;4978437;28;20478;-83
2022/06/08 05:02:47;;;;;;;23.17;14.82;;;;;;;15.30;97.76;100775.94;4977563;28;20026;-82
2022/06/08 05:05:21;;;;;;;;;;;;;;;15.75;99.32;100812.94;4996172;28;20030;-83
2022/06/08 05:08:09;;;;;;;22.45;14.82;;;;;;;15.75;96.69;100821.56;4995597;28;19914;-82
2022/06/08 05:10:36;;;;;;;21.80;14.90;;;;;;;14.99;95.53;100679.66;4898352;29;20040;-84
2022/06/08 05:13:40;;;;;;;17.33;13.50;;;;;;;16.22;95.03;100816.69;4897952;29;20039;-84
2022/06/08 05:16:07;;;;;;;18.00;12.60;;;;;;;16.25;92.35;100792.13;4897536;29;20064;-84
2022/06/08 05:18:41;;;;;;;17.80;12.38;;;;;;;16.47;91.38;100809.31;4897755;29;20088;-83
2022/06/08 05:21:07;;;;;;;17.25;11.57;;;;;;;16.46;91.41;100799.84;4897467;29;20452;-84
2022/06/08 05:23:48;;;;;;;15.43;10.98;;;;;;;15.86;91.52;100680.03;4881530;29;20081;-84
2022/06/08 05:26:13;;;;;;;14.18;10.80;;;;;;;16.42;90.67;100794.09;4897643;29;20070;-79
2022/06/08 05:28:39;;;;;;;14.27;10.52;;;;;;;16.30;91.07;100784.72;4897375;29;20056;-82
2022/06/08 05:31:05;;;;;;;16.35;10.60;;;;;;;16.17;91.51;100784.97;4897146;29;20037;-81
2022/06/08 05:33:33;;;;;;;16.92;10.65;;;;;;;15.41;92.11;100676.97;4897209;29;20044;-81
2022/06/08 05:35:59;;;;;;;15.30;10.50;;;;;;;15.37;92.79;100692.03;4897171;29;20080;-82
2022/06/08 05:38:24;;;;;;;15.00;10.45;;;;;;;15.76;93.19;100758.13;4897492;29;20041;-82
2022/06/08 05:40:50;;;;;;;13.57;10.02;;;;;;;15.48;93.25;100719.75;4931872;28;20041;-83
2022/06/08 05:43:17;;;;;;;15.18;10.35;;;;;;;15.55;93.88;100739.09;4995268;28;20026;-81
2022/06/08 05:45:43;;;;;;;14.13;11.00;;;;;;;15.80;94.85;100757.84;4994967;28;20042;-81
2022/06/08 05:48:09;;;;;;;18.55;12.20;;;;;;;15.56;94.62;100712.13;4995187;28;20385;-83
2022/06/08 05:50:36;;;;;;;15.85;11.45;;;;;;;15.90;94.27;100758.72;4977853;28;20026;-81
2022/06/08 05:53:03;;;;;;;14.50;11.00;;;;;;;15.97;94.23;100757.22;4977654;28;20030;-81
2022/06/08 05:55:28;;;;;;;14.95;11.18;;;;;;;15.92;94.43;100746.38;4995122;28;20038;-81
2022/06/08 05:57:54;;;;;;;17.25;12.07;;;;;;;15.79;94.03;100715.38;4994786;28;20100;-81
2022/06/08 06:00:25;;;;;;;15.68;11.70;;;;;;;16.09;94.17;100755.34;4977097;28;20430;-81
2022/06/08 06:02:51;;;;;;;18.38;11.52;;;;;;;16.02;93.04;100723.78;4994644;28;20026;-82
2022/06/08 06:05:20;;;;;;;14.82;11.10;;;;;;;16.13;92.83;100726.28;4994660;28;20038;-81
2022/06/08 06:07:45;;;;;;;13.40;10.80;;;;;;;16.45;92.81;100753.88;4976845;28;20117;-82
2022/06/08 06:10:13;;;;;;;16.20;11.10;;;;;;;16.57;92.54;100750.19;4977134;28;20125;-81
2022/06/08 06:12:38;;;;;;;14.98;11.70;;;;;;;16.67;91.26;100729.31;4994307;28;20026;-81
2022/06/08 06:15:05;;;;;;;13.82;10.48;;;;;;;16.82;91.17;100743.63;4994199;28;20022;-81
2022/06/08 06:17:31;;;;;;;14.32;10.68;;;;;;;16.76;90.17;100713.69;4994365;28;20374;-80
2022/06/08 06:19:57;;;;;;;14.55;10.35;;;;;;;16.81;89.67;100734.13;4994406;28;20077;-81
2022/06/08 06:22:39;;;;;;;13.55;10.27;;;;;;;16.44;91.09;100671.44;4994444;28;20066;-81
2022/06/08 06:37:02;;;;;;;15.90;9.73;;;;;;;16.68;90.99;100742.25;4995305;28;20060;-80
2022/06/08 06:46:15;;;;;;;14.35;9.40;;;;;;;15.70;90.84;100588.59;4993825;28;20406;-81
2022/06/08 06:48:41;;;;;;;15.10;9.27;;;;;;;15.99;90.65;100646.75;4993699;28;20033;-83
2022/06/08 06:51:11;;;;;;;15.60;9.80;;;;;;;16.30;91.49;100670.88;4993816;28;20467;-81
2022/06/08 06:53:36;;;;;;;12.40;9.00;;;;;;;16.08;90.43;100598.22;4993920;28;20037;-82
2022/06/08 06:56:06;;;;;;;15.90;9.18;;;;;;;17.21;89.88;100749.59;4993610;28;20030;-79
2022/06/08 06:58:32;;;;;;;14.10;8.93;;;;;;;17.46;89.82;100703.75;4993499;28;20394;-79
2022/06/08 07:00:57;;;;;;;12.20;8.35;;;;;;;17.92;84.64;100670.69;4993610;28;20023;-81
2022/06/08 07:03:23;;;;;;;12.70;7.00;;;;;;;18.85;81.72;100730.38;4993594;28;20054;-81
2022/06/08 07:05:51;;;;;;;10.88;6.35;;;;;;;19.94;79.18;100728.00;4993960;28;20026;-81
2022/06/08 07:08:17;;;;;;;10.57;6.25;;;;;;;21.28;73.24;100699.66;4994038;28;20030;-82
2022/06/08 07:10:44;;;;;;;11.15;5.30;;;;;;;21.77;65.90;100666.09;4976474;28;20521;-81
2022/06/08 07:13:09;;;;;;;8.65;5.22;;;;;;;22.65;65.89;100716.63;4993748;28;20554;-81
2022/06/08 07:15:35;;;;;;;8.40;4.68;;;;;;;22.93;64.10;100716.91;4974782;28;20125;-81
2022/06/08 07:18:00;;;;;;;7.43;4.38;;;;;;;23.63;60.85;100705.94;4993238;28;20109;-81
2022/06/08 07:20:25;;;;;;;10.40;4.47;;;;;;;23.63;60.36;100709.38;4993486;28;20041;-81
2022/06/08 07:22:51;;;;;;;10.02;4.25;;;;;;;24.07;59.52;100702.34;4976051;28;20116;-80
2022/06/08 07:25:18;;;;;;;7.97;4.30;;;;;;;24.69;57.47;100689.34;4993038;28;20108;-81
2022/06/08 07:27:44;;;;;;;11.75;4.00;;;;;;;24.92;54.85;100691.72;4993199;28;20386;-81
2022/06/08 07:30:16;;;;;;;7.90;4.10;;;;;;;24.18;57.12;100651.72;4993325;28;20035;-82
2022/06/08 07:32:41;;;;;;;9.07;4.32;;;;;;;24.53;55.24;100695.69;4992993;28;20533;-81
2022/06/08 07:35:08;;;;;;;10.43;4.70;;;;;;;24.90;53.50;100699.03;4993262;28;20065;-82
2022/06/08 07:37:33;;;;;;;9.32;4.10;;;;;;;24.79;54.03;100652.03;4993316;28;20390;-81
2022/06/08 07:39:59;;;;;;;8.10;4.35;;;;;;;24.34;56.84;100650.66;4975906;28;20036;-81
2022/06/08 07:42:24;;;;;;;10.60;4.22;;;;;;;23.61;57.10;100674.47;4975665;28;20027;-79
2022/06/08 07:44:49;;;;;;;9.63;4.43;;;;;;;22.55;61.42;100659.81;4993341;28;20057;-80
2022/06/08 07:47:15;;;;;;;8.43;4.72;;;;;;;22.19;63.85;100695.59;4993077;28;20042;-79
2022/06/08 07:49:42;;;;;;;11.15;5.10;;;;;;;22.01;64.22;100683.53;4993260;28;20084;-81
2022/06/08 07:52:17;;;;;;;8.98;4.28;;;;;;;21.78;65.01;100677.44;4993153;28;20031;-81
2022/06/08 07:54:44;;;;;;;9.73;4.13;;;;;;;21.79;64.43;100692.22;4993060;28;20030;-81
2022/06/08 07:57:18;;;;;;;10.13;4.22;;;;;;;21.11;64.82;100619.25;4993058;28;20062;-80
2022/06/08 07:59:43;;;;;;;10.75;4.15;;;;;;;21.17;66.45;100671.13;4993001;28;20029;-79
2022/06/08 08:02:09;;;;;;;9.30;4.80;;;;;;;20.88;66.24;100672.50;4992740;28;20026;-82
2022/06/08 08:04:35;;;;;;;12.05;4.82;;;;;;;20.62;67.73;100679.75;4992947;28;20050;-81
2022/06/08 08:09:48;;;;;;;12.93;4.45;;;;;;;20.25;69.45;100703.78;4992774;28;20157;-81
2022/06/08 08:12:16;;;;;;;9.05;4.88;;;;;;;19.81;69.40;100632.47;4992887;28;20023;-82
2022/06/08 08:14:41;;;;;;;9.40;4.28;;;;;;;20.33;69.18;100699.38;4992739;28;20030;-82
2022/06/08 08:17:08;;;;;;;7.90;4.40;;;;;;;20.44;69.46;100703.50;4992764;28;20359;-81
2022/06/08 08:19:34;;;;;;;7.57;4.38;;;;;;;20.01;68.76;100621.53;4992913;28;20429;-81
2022/06/08 08:22:00;;;;;;;10.60;4.68;;;;;;;19.99;68.79;100622.69;4992970;28;20086;-81
2022/06/08 08:24:26;;;;;;;11.20;4.38;;;;;;;20.50;68.25;100691.56;4992770;28;20030;-81
2022/06/08 08:26:55;;;;;;;8.80;4.43;;;;;;;20.32;69.61;100655.78;4993049;28;20470;-82
2022/06/08 08:29:20;;;;;;;11.18;5.05;;;;;;;20.12;67.82;100624.81;4992683;28;20031;-81
2022/06/08 08:31:47;;;;;;;7.70;3.90;;;;;;;20.50;69.37;100691.56;4992511;28;20483;-80
2022/06/08 08:34:12;;;;;;;11.77;4.30;;;;;;;20.41;69.15;100674.97;4992900;28;20030;-79
2022/06/08 08:36:38;;;;;;;10.07;4.10;;;;;;;20.45;68.16;100699.94;4977632;28;20048;-78
2022/06/08 08:39:04;;;;;;;9.18;3.92;;;;;;;20.16;69.16;100674.16;4978345;28;20047;-77
2022/06/08 08:44:42;;;;;;;9.13;4.30;;;;;;;19.77;70.36;100700.13;4996365;28;20038;-82
2022/06/08 08:47:39;;;;;;;13.25;4.80;;;;;;;19.51;71.30;100700.16;4976601;23;20610;-82
2022/06/08 08:50:25;;;;;;;10.68;4.68;;;;;;;19.49;73.71;100697.69;4957278;29;20110;-78
2022/06/08 08:52:50;;;;;;;11.90;4.63;;;;;;;19.32;72.43;100679.44;4957315;29;20031;-82
2022/06/08 08:55:17;;;;;;;9.90;4.70;;;;;;;19.31;71.81;100696.94;4957269;29;20027;-78
2022/06/08 08:58:08;;;;;;;14.80;4.97;;;;;;;19.25;72.60;100674.00;4957153;29;20038;-79
2022/06/08 09:00:37;;;;;;;8.75;4.35;;;;;;;19.44;72.51;100694.72;4957353;29;20034;-78
2022/06/08 09:03:29;;;;;;;10.65;4.78;;;;;;;19.32;73.17;100658.50;4956816;29;20074;-78
2022/06/08 09:06:18;;;;;;;13.25;4.80;;;;;;;19.63;72.83;100698.91;4956192;29;20071;-77
2022/06/08 09:08:51;;;;;;;8.93;4.63;;;;;;;19.62;71.97;100707.75;4957121;29;20065;-79
2022/06/08 09:11:29;;;;;;;12.93;4.70;;;;;;;19.46;71.83;100679.66;4956966;29;20039;-78
2022/06/08 09:14:03;;;;;;;8.43;3.75;;;;;;;19.24;73.23;100629.66;4956797;29;20030;-79
2022/06/08 09:16:39;;;;;;;10.13;3.95;;;;;;;18.80;72.53;100564.38;4956759;29;20499;-76
2022/06/08 09:19:26;;;;;;;10.02;3.83;;;;;;;19.63;71.75;100700.72;4956630;29;20020;-80
2022/06/08 09:22:17;;;;;;;9.30;3.65;;;;;;;19.55;71.68;100703.25;4956655;29;20035;-77
2022/06/08 09:24:58;;;;;;;10.77;4.10;;;;;;;19.46;71.38;100710.25;4956558;29;20031;-78
2022/06/08 09:27:38;;;;;;;10.30;3.88;;;;;;;19.35;71.81;100710.53;4939815;29;20039;-79
2022/06/08 09:30:13;;;;;;;13.38;4.15;;;;;;;19.23;72.10;100706.56;4956567;29;20028;-78
2022/06/08 09:32:51;;;;;;;13.32;3.85;;;;;;;19.08;73.62;100698.47;4956272;29;20090;-78
2022/06/08 09:35:26;;;;;;;9.43;3.85;;;;;;;18.99;74.27;100699.41;4956440;29;20035;-77
2022/06/08 09:37:55;;;;;;;9.38;4.03;;;;;;;18.86;73.90;100703.22;4939071;29;20044;-76
2022/06/08 09:40:42;;;;;;;11.13;3.90;;;;;;;18.70;75.67;100681.38;4955208;29;20082;-77
2022/06/08 09:43:28;;;;;;;11.18;4.28;;;;;;;18.78;76.59;100704.94;4956248;29;20023;-76
2022/06/08 09:46:15;;;;;;;11.20;4.40;;;;;;;18.67;77.21;100706.03;4939043;29;20403;-78
2022/06/08 09:52:02;;;;;;;11.65;4.60;;;;;;;18.40;79.44;100675.56;4956215;29;20085;-78
2022/06/08 09:54:42;;;;;;;10.70;3.90;;;;;;;18.63;79.37;100705.47;4956127;29;20038;-78
2022/06/08 09:57:38;;;;;;;11.02;4.60;;;;;;;18.65;78.94;100707.16;4966846;28;20134;-75
2022/06/08 10:00:39;;;;;;;8.65;4.57;;;;;;;18.68;79.10;100714.69;4975601;28;20027;-75
2022/06/08 10:03:28;;;;;;;13.57;4.82;;;;;;;18.78;78.95;100702.34;4896643;29;20124;-78
2022/06/08 10:06:06;;;;;;;11.15;4.40;;;;;;;18.91;79.52;100713.25;4896690;29;20049;-77
2022/06/08 10:08:57;;;;;;;9.48;4.57;;;;;;;18.82;80.38;100664.44;4896720;29;20136;-79
2022/06/08 10:11:40;;;;;;;11.65;4.65;;;;;;;18.87;79.34;100683.09;5070121;23;20053;-76
2022/06/08 10:14:25;;;;;;;9.68;4.40;;;;;;;18.80;79.30;100688.16;4994460;28;20049;-81
2022/06/08 10:16:56;;;;;;;11.55;4.47;;;;;;;18.48;78.81;100654.69;4976962;28;20035;-80
2022/06/08 10:19:47;;;;;;;12.40;4.18;;;;;;;18.88;80.61;100708.31;4976795;28;20030;-77
2022/06/08 10:22:13;;;;;;;10.68;4.55;;;;;;;18.71;80.19;100711.78;4994347;28;20386;-79
2022/06/08 10:24:51;;;;;;;11.68;4.15;;;;;;;18.52;80.78;100684.81;4994356;28;20026;-79
2022/06/08 10:27:41;;;;;;;12.05;4.28;;;;;;;18.56;80.84;100701.81;4993937;28;20026;-79
2022/06/08 10:30:14;;;;;;;11.75;4.28;;;;;;;18.47;81.08;100712.38;4994166;28;20034;-76
2022/06/08 10:33:16;;;;;;;10.80;3.38;;;;;;;18.35;81.06;100696.09;4994247;28;20088;-79
2022/06/08 10:35:46;;;;;;;13.00;3.78;;;;;;;17.94;81.35;100679.19;4986771;28;20156;-77
2022/06/08 10:38:21;;;;;;;10.05;3.75;;;;;;;17.91;82.27;100716.91;4994154;28;20130;-78
2022/06/08 10:40:51;;;;;;;9.38;3.70;;;;;;;17.85;83.68;100708.81;4994120;28;20038;-78
2022/06/08 10:43:24;;;;;;;10.38;4.28;;;;;;;17.61;82.68;100704.94;4994048;28;20113;-79
2022/06/08 10:46:04;;;;;;;11.40;3.58;;;;;;;17.62;82.97;100709.19;4993789;28;20053;-77
2022/06/08 10:48:46;;;;;;;10.32;3.63;;;;;;;17.51;83.46;100703.34;4993904;28;20050;-79
2022/06/08 10:51:14;;;;;;;12.05;4.07;;;;;;;17.46;85.13;100712.41;4992723;28;20859;-87
2022/06/08 10:57:32;;;;;;;20.48;4.88;;;;;;;17.06;86.15;100659.69;4935351;28;20048;-89
2022/06/08 11:04:17;;;;;;;;;;;;;;;;;;;;;
2022/06/08 12:11:53;;;;;;;10.13;3.88;;;;;;;16.92;84.07;100565.28;5581771;23;20239;-93
2022/06/08 12:32:27;;;;;;;9.10;3.40;;;;;;;16.53;88.47;100623.69;4917185;29;20457;-84
2022/06/08 12:38:57;;;;;;;10.02;3.70;;;;;;;15.64;90.34;100524.91;4916591;29;20535;-87
2022/06/08 12:41:56;;;;;;;8.40;3.50;;;;;;;16.29;90.37;100627.53;4916565;29;20040;-87
2022/06/08 12:44:53;;;;;;;7.60;3.47;;;;;;;14.85;91.16;100404.44;4918664;28;20134;-87
2022/06/08 12:47:50;;;;;;;7.22;3.78;;;;;;;16.25;91.06;100618.38;4916983;29;20032;-86
2022/06/08 12:54:23;;;;;;;8.25;3.22;;;;;;;16.45;91.54;100610.53;4916995;29;20062;-85
2022/06/08 13:04:04;;;;;;;7.50;3.85;;;;;;;16.50;91.29;100605.72;4936004;29;20129;-83
2022/06/08 13:06:31;;;;;;;9.85;3.78;;;;;;;15.99;91.81;100537.34;4950960;28;20095;-81
2022/06/08 13:12:05;;;;;;;10.35;3.55;;;;;;;15.08;92.34;100405.00;4953482;28;20166;-82
2022/06/08 13:15:11;;;;;;;6.20;3.50;;;;;;;16.21;92.56;100597.94;4954456;29;20529;-83
2022/06/08 13:17:39;;;;;;;7.47;3.78;;;;;;;15.54;93.47;100500.63;4954363;29;20061;-86
2022/06/08 13:20:27;;;;;;;8.63;3.88;;;;;;;16.11;94.29;100591.91;4938528;29;20023;-85
2022/06/08 13:23:05;;;;;;;7.57;4.30;;;;;;;15.64;94.58;100524.91;4953579;28;20439;-86
2022/06/08 13:26:01;;;;;;;10.30;4.95;;;;;;;16.14;93.85;100586.44;4937894;29;20050;-85
2022/06/08 13:34:20;;;;;;;7.72;3.78;;;;;;;16.36;93.30;100591.34;5014843;28;20370;-84
2022/06/08 13:37:28;;;;;;;6.70;4.03;;;;;;;16.40;93.17;100578.84;5014335;28;20022;-84
2022/06/08 13:49:57;;;;;;;8.15;3.75;;;;;;;16.19;94.69;100585.03;5014713;28;20033;-84
2022/06/08 13:52:31;;;;;;;6.65;3.45;;;;;;;15.78;94.98;100523.66;5014172;28;20041;-86
2022/06/08 13:55:49;;;;;;;7.97;3.53;;;;;;;16.14;94.92;100587.25;5014107;28;20503;-86
2022/06/08 13:58:55;;;;;;;6.93;3.75;;;;;;;16.08;95.11;100579.97;5013950;28;20382;-84
2022/06/08 14:04:33;;;;;;;7.85;3.50;;;;;;;14.86;96.76;100393.09;4906695;29;20081;-83
2022/06/08 14:13:44;;;;;;;6.82;5.00;;;;;;;16.00;95.89;100512.13;4896765;29;20429;-86
2022/06/08 14:17:05;;;;;;;7.20;4.78;;;;;;;16.54;95.31;100581.03;4896121;29;20141;-81
2022/06/08 14:23:31;;;;;;;6.50;3.72;;;;;;;16.63;95.26;100572.34;4897002;29;20043;-87
2022/06/08 14:39:45;;;;;;;;;;;;;;;17.04;93.33;100576.34;4993917;28;20137;-86
2022/06/08 14:51:03;;;;;;;9.90;8.82;;;;;;;16.90;91.75;100580.22;4993528;28;20041;-84
2022/06/08 14:53:29;;;;;;;10.40;9.00;;;;;;;15.76;92.86;100411.84;4993722;28;20045;-89
2022/06/08 15:02:38;;;;;;;12.25;9.07;;;;;;;15.49;93.35;100401.31;4993899;28;20049;-86
2022/06/08 15:05:07;;;;;;;10.70;9.50;;;;;;;16.52;94.08;100575.13;4914120;29;20060;-86
2022/06/08 15:07:35;;;;;;;13.52;9.20;;;;;;;16.29;92.16;100548.56;4914379;29;20032;-87
2022/06/08 15:10:03;;;;;;;12.18;9.55;;;;;;;16.44;93.28;100588.03;4914885;29;20123;-91
2022/06/08 15:15:47;;;;;;;11.90;9.77;;;;;;;15.95;94.28;100515.16;4914624;29;20576;-88
2022/06/08 15:18:30;;;;;;;12.55;10.25;;;;;;;15.97;93.69;100515.84;4914578;29;20040;-89
2022/06/08 15:21:08;;;;;;;11.70;10.18;;;;;;;15.45;94.24;100402.56;4914492;29;20064;-91
2022/06/08 15:31:31;;;;;;;12.35;11.05;;;;;;;16.65;92.96;100583.47;4916881;28;20567;-87
2022/06/08 15:33:57;;;;;;;15.02;11.90;;;;;;;16.51;92.31;100582.09;4933572;29;20095;-88
2022/06/08 15:41:51;;;;;;;14.55;11.93;;;;;;;16.38;94.04;100593.81;5010664;28;20100;-88
2022/06/08 15:44:44;;;;;;;14.60;12.00;;;;;;;15.09;93.69;100407.47;4992131;28;20031;-89
2022/06/08 15:48:03;;;;;;;17.75;13.52;;;;;;;16.23;94.37;100596.84;4999108;28;20167;-89
2022/06/08 16:07:46;;;;;;;;;;;;;;;;;;;;;
2022/06/08 16:13:28;;;;;;;21.85;15.50;;;;;;;16.19;95.67;100603.28;5022342;23;20065;-85
2022/06/08 16:16:06;;;;;;;18.83;15.30;;;;;;;15.11;95.83;100415.94;5078649;23;20005;-83
2022/06/08 16:21:29;;;;;;;22.23;15.48;;;;;;;15.11;95.29;100407.34;5023283;23;20057;-84
2022/06/08 16:30:41;;;;;;;21.63;15.80;;;;;;;16.46;94.85;100599.16;5015768;28;19935;-85
2022/06/08 16:37:23;;;;;;;25.05;14.68;;;;;;;16.56;94.78;100603.38;4918604;28;20542;-83
2022/06/08 16:40:14;;;;;;;26.00;15.48;;;;;;;16.61;94.58;100600.31;4900897;29;20032;-89
2022/06/08 16:42:50;;;;;;;24.65;15.07;;;;;;;15.77;94.59;100481.19;4916982;29;20060;-85
2022/06/08 16:45:25;;;;;;;23.60;15.35;;;;;;;15.43;94.38;100426.09;4901229;29;20028;-83
2022/06/08 16:48:00;;;;;;;25.10;15.07;;;;;;;16.41;95.07;100602.16;4916970;29;20578;-82
2022/06/08 16:50:56;;;;;;;23.85;15.20;;;;;;;16.45;95.08;100602.72;4917429;29;20039;-83
2022/06/08 16:53:50;;;;;;;23.25;15.40;;;;;;;16.30;95.66;100608.34;4947740;23;20599;-82
2022/06/08 16:59:42;;;;;;;27.50;15.45;;;;;;;16.14;96.57;100615.91;5016888;28;20393;-85
2022/06/08 17:02:18;;;;;;;24.02;15.45;;;;;;;15.08;96.88;100465.66;4995199;28;20030;-85